sensor_id;sensor_type;location;lat;lon;timestamp;P1;durP1;ratioP1;P2;durP2;ratioP2
21825;SDS011;11075;47.944;11.776;2023-06-26T00:02:16;9.80;;;7.22;;
21825;SDS011;11075;47.944;11.776;2023-06-26T00:04:43;10.55;;;7.18;;
21825;SDS011;11075;47.944;11.776;2023-06-26T00:07:10;8.43;;;6.80;;
21825;SDS011;11075;47.944;11.776;2023-06-26T00:09:37;9.88;;;6.97;;
21825;SDS011;11075;47.944;11.776;2023-06-26T00:12:04;10.95;;;7.80;;
21825;SDS011;11075;47.944;11.776;2023-06-26T00:14:31;9.77;;;7.03;;
21825;SDS011;11075;47.944;11.776;2023-06-26T00:16:58;9.75;;;6.45;;
21825;SDS011;11075;47.944;11.776;2023-06-26T00:19:25;9.75;;;7.25;;
21825;SDS011;11075;47.944;11.776;2023-06-26T00:21:52;9.02;;;6.95;;
21825;SDS011;11075;47.944;11.776;2023-06-26T00:24:19;9.50;;;7.15;;
21825;SDS011;11075;47.944;11.776;2023-06-26T00:26:46;8.45;;;6.68;;
21825;SDS011;11075;47.944;11.776;2023-06-26T00:29:14;11.48;;;7.72;;
21825;SDS011;11075;47.944;11.776;2023-06-26T00:31:41;9.23;;;7.10;;
21825;SDS011;11075;47.944;11.776;2023-06-26T00:34:08;11.23;;;7.00;;
21825;SDS011;11075;47.944;11.776;2023-06-26T00:36:35;10.05;;;7.22;;
21825;SDS011;11075;47.944;11.776;2023-06-26T00:39:02;8.60;;;6.78;;
21825;SDS011;11075;47.944;11.776;2023-06-26T00:41:30;10.20;;;7.47;;
21825;SDS011;11075;47.944;11.776;2023-06-26T00:43:57;11.18;;;7.93;;
21825;SDS011;11075;47.944;11.776;2023-06-26T00:46:26;8.68;;;7.03;;
21825;SDS011;11075;47.944;11.776;2023-06-26T00:48:52;10.90;;;7.25;;
21825;SDS011;11075;47.944;11.776;2023-06-26T00:51:21;10.52;;;7.05;;
21825;SDS011;11075;47.944;11.776;2023-06-26T00:53:49;10.10;;;7.07;;
21825;SDS011;11075;47.944;11.776;2023-06-26T00:56:17;10.98;;;6.75;;
21825;SDS011;11075;47.944;11.776;2023-06-26T00:58:44;9.15;;;7.40;;
21825;SDS011;11075;47.944;11.776;2023-06-26T01:01:12;11.07;;;7.32;;
21825;SDS011;11075;47.944;11.776;2023-06-26T01:03:44;11.18;;;6.85;;
21825;SDS011;11075;47.944;11.776;2023-06-26T01:06:13;8.70;;;6.70;;
21825;SDS011;11075;47.944;11.776;2023-06-26T01:08:41;12.45;;;7.28;;
21825;SDS011;11075;47.944;11.776;2023-06-26T01:11:09;9.52;;;7.10;;
21825;SDS011;11075;47.944;11.776;2023-06-26T01:13:36;10.65;;;6.85;;
21825;SDS011;11075;47.944;11.776;2023-06-26T01:16:05;9.73;;;7.20;;
21825;SDS011;11075;47.944;11.776;2023-06-26T01:18:32;11.75;;;6.93;;
21825;SDS011;11075;47.944;11.776;2023-06-26T01:21:01;10.00;;;7.28;;
21825;SDS011;11075;47.944;11.776;2023-06-26T01:23:35;11.27;;;7.15;;
21825;SDS011;11075;47.944;11.776;2023-06-26T01:28:38;9.98;;;7.28;;
21825;SDS011;11075;47.944;11.776;2023-06-26T01:31:07;10.60;;;6.57;;
21825;SDS011;11075;47.944;11.776;2023-06-26T01:33:35;8.95;;;6.80;;
21825;SDS011;11075;47.944;11.776;2023-06-26T01:36:02;9.25;;;7.18;;
21825;SDS011;11075;47.944;11.776;2023-06-26T01:38:30;8.50;;;6.80;;
21825;SDS011;11075;47.944;11.776;2023-06-26T01:40:57;10.45;;;6.95;;
21825;SDS011;11075;47.944;11.776;2023-06-26T01:46:29;9.40;;;6.90;;
21825;SDS011;11075;47.944;11.776;2023-06-26T01:49:04;9.68;;;6.72;;
21825;SDS011;11075;47.944;11.776;2023-06-26T01:51:42;9.77;;;6.20;;
21825;SDS011;11075;47.944;11.776;2023-06-26T01:54:20;8.65;;;6.68;;
21825;SDS011;11075;47.944;11.776;2023-06-26T01:56:49;9.15;;;6.80;;
21825;SDS011;11075;47.944;11.776;2023-06-26T01:59:20;9.75;;;7.20;;
21825;SDS011;11075;47.944;11.776;2023-06-26T02:01:48;9.50;;;7.18;;
21825;SDS011;11075;47.944;11.776;2023-06-26T02:04:15;9.52;;;6.90;;
21825;SDS011;11075;47.944;11.776;2023-06-26T02:06:42;9.57;;;7.40;;
21825;SDS011;11075;47.944;11.776;2023-06-26T02:09:09;11.60;;;7.40;;
21825;SDS011;11075;47.944;11.776;2023-06-26T02:11:36;9.25;;;7.43;;
21825;SDS011;11075;47.944;11.776;2023-06-26T02:14:03;10.05;;;7.00;;
21825;SDS011;11075;47.944;11.776;2023-06-26T02:16:30;9.98;;;7.10;;
21825;SDS011;11075;47.944;11.776;2023-06-26T02:18:57;9.20;;;6.13;;
21825;SDS011;11075;47.944;11.776;2023-06-26T02:21:24;9.68;;;7.00;;
21825;SDS011;11075;47.944;11.776;2023-06-26T02:23:50;9.35;;;7.00;;
21825;SDS011;11075;47.944;11.776;2023-06-26T02:26:17;9.00;;;6.57;;
21825;SDS011;11075;47.944;11.776;2023-06-26T02:28:44;9.18;;;6.70;;
21825;SDS011;11075;47.944;11.776;2023-06-26T02:31:11;10.70;;;7.47;;
21825;SDS011;11075;47.944;11.776;2023-06-26T02:33:38;10.93;;;7.43;;
21825;SDS011;11075;47.944;11.776;2023-06-26T02:36:05;9.77;;;7.13;;
21825;SDS011;11075;47.944;11.776;2023-06-26T02:38:32;9.18;;;6.97;;
21825;SDS011;11075;47.944;11.776;2023-06-26T02:41:01;9.23;;;7.03;;
21825;SDS011;11075;47.944;11.776;2023-06-26T02:43:28;10.35;;;6.93;;
21825;SDS011;11075;47.944;11.776;2023-06-26T02:45:55;10.68;;;7.13;;
21825;SDS011;11075;47.944;11.776;2023-06-26T02:48:22;10.15;;;7.13;;
21825;SDS011;11075;47.944;11.776;2023-06-26T02:50:49;9.05;;;6.70;;
21825;SDS011;11075;47.944;11.776;2023-06-26T02:53:17;10.57;;;7.43;;
21825;SDS011;11075;47.944;11.776;2023-06-26T02:55:45;11.93;;;7.13;;
21825;SDS011;11075;47.944;11.776;2023-06-26T02:58:15;8.80;;;6.67;;
21825;SDS011;11075;47.944;11.776;2023-06-26T03:00:42;9.13;;;7.00;;
21825;SDS011;11075;47.944;11.776;2023-06-26T03:03:13;9.30;;;7.10;;
21825;SDS011;11075;47.944;11.776;2023-06-26T03:05:40;9.90;;;6.93;;
21825;SDS011;11075;47.944;11.776;2023-06-26T03:08:07;8.43;;;6.47;;
21825;SDS011;11075;47.944;11.776;2023-06-26T03:10:34;10.52;;;7.13;;
21825;SDS011;11075;47.944;11.776;2023-06-26T03:13:01;9.20;;;6.60;;
21825;SDS011;11075;47.944;11.776;2023-06-26T03:15:28;10.10;;;6.80;;
21825;SDS011;11075;47.944;11.776;2023-06-26T03:17:55;9.70;;;7.38;;
21825;SDS011;11075;47.944;11.776;2023-06-26T03:20:25;9.10;;;7.25;;
21825;SDS011;11075;47.944;11.776;2023-06-26T03:22:54;11.27;;;6.90;;
21825;SDS011;11075;47.944;11.776;2023-06-26T03:25:22;13.45;;;7.40;;
21825;SDS011;11075;47.944;11.776;2023-06-26T03:27:55;10.95;;;7.32;;
21825;SDS011;11075;47.944;11.776;2023-06-26T03:30:24;10.82;;;7.38;;
21825;SDS011;11075;47.944;11.776;2023-06-26T03:32:52;10.00;;;6.68;;
21825;SDS011;11075;47.944;11.776;2023-06-26T03:35:20;9.85;;;7.05;;
21825;SDS011;11075;47.944;11.776;2023-06-26T03:37:48;12.10;;;7.07;;
21825;SDS011;11075;47.944;11.776;2023-06-26T03:40:15;9.75;;;6.75;;
21825;SDS011;11075;47.944;11.776;2023-06-26T03:42:43;9.67;;;6.97;;
21825;SDS011;11075;47.944;11.776;2023-06-26T03:45:10;10.25;;;7.15;;
21825;SDS011;11075;47.944;11.776;2023-06-26T03:47:37;9.73;;;6.90;;
21825;SDS011;11075;47.944;11.776;2023-06-26T03:50:04;9.13;;;6.85;;
21825;SDS011;11075;47.944;11.776;2023-06-26T03:52:32;10.00;;;7.00;;
21825;SDS011;11075;47.944;11.776;2023-06-26T03:54:58;9.00;;;7.05;;
21825;SDS011;11075;47.944;11.776;2023-06-26T03:57:25;9.73;;;6.70;;
21825;SDS011;11075;47.944;11.776;2023-06-26T03:59:52;10.02;;;7.20;;
21825;SDS011;11075;47.944;11.776;2023-06-26T04:02:20;11.77;;;7.13;;
21825;SDS011;11075;47.944;11.776;2023-06-26T04:04:47;11.68;;;6.93;;
21825;SDS011;11075;47.944;11.776;2023-06-26T04:07:14;8.63;;;6.40;;
21825;SDS011;11075;47.944;11.776;2023-06-26T04:09:41;9.63;;;7.07;;
21825;SDS011;11075;47.944;11.776;2023-06-26T04:12:08;13.73;;;8.00;;
21825;SDS011;11075;47.944;11.776;2023-06-26T04:14:35;13.30;;;7.65;;
21825;SDS011;11075;47.944;11.776;2023-06-26T04:17:02;10.63;;;7.30;;
21825;SDS011;11075;47.944;11.776;2023-06-26T04:19:29;12.07;;;7.45;;
21825;SDS011;11075;47.944;11.776;2023-06-26T04:21:56;13.32;;;7.30;;
21825;SDS011;11075;47.944;11.776;2023-06-26T04:24:23;16.20;;;6.80;;
21825;SDS011;11075;47.944;11.776;2023-06-26T04:26:50;11.40;;;6.88;;
21825;SDS011;11075;47.944;11.776;2023-06-26T04:29:17;18.20;;;8.07;;
21825;SDS011;11075;47.944;11.776;2023-06-26T04:31:44;14.50;;;7.88;;
21825;SDS011;11075;47.944;11.776;2023-06-26T04:34:14;14.95;;;7.50;;
21825;SDS011;11075;47.944;11.776;2023-06-26T04:36:41;15.80;;;7.28;;
21825;SDS011;11075;47.944;11.776;2023-06-26T04:39:14;12.32;;;6.80;;
21825;SDS011;11075;47.944;11.776;2023-06-26T04:41:41;10.63;;;6.97;;
21825;SDS011;11075;47.944;11.776;2023-06-26T04:44:08;16.98;;;7.22;;
21825;SDS011;11075;47.944;11.776;2023-06-26T04:46:36;16.95;;;7.65;;
21825;SDS011;11075;47.944;11.776;2023-06-26T04:49:08;12.57;;;7.05;;
21825;SDS011;11075;47.944;11.776;2023-06-26T04:51:35;15.23;;;7.50;;
21825;SDS011;11075;47.944;11.776;2023-06-26T04:54:07;11.30;;;7.38;;
21825;SDS011;11075;47.944;11.776;2023-06-26T04:56:34;16.27;;;7.72;;
21825;SDS011;11075;47.944;11.776;2023-06-26T04:59:02;12.73;;;7.25;;
21825;SDS011;11075;47.944;11.776;2023-06-26T05:01:29;14.18;;;6.95;;
21825;SDS011;11075;47.944;11.776;2023-06-26T05:03:57;11.38;;;6.50;;
21825;SDS011;11075;47.944;11.776;2023-06-26T05:06:24;10.95;;;6.95;;
21825;SDS011;11075;47.944;11.776;2023-06-26T05:08:51;11.05;;;6.95;;
21825;SDS011;11075;47.944;11.776;2023-06-26T05:11:18;12.55;;;7.05;;
21825;SDS011;11075;47.944;11.776;2023-06-26T05:13:44;11.50;;;7.43;;
21825;SDS011;11075;47.944;11.776;2023-06-26T05:16:11;11.88;;;6.50;;
21825;SDS011;11075;47.944;11.776;2023-06-26T05:18:38;11.13;;;6.80;;
21825;SDS011;11075;47.944;11.776;2023-06-26T05:21:05;12.93;;;7.18;;
21825;SDS011;11075;47.944;11.776;2023-06-26T05:23:33;11.02;;;6.63;;
21825;SDS011;11075;47.944;11.776;2023-06-26T05:26:01;10.57;;;6.60;;
21825;SDS011;11075;47.944;11.776;2023-06-26T05:28:29;10.00;;;6.70;;
21825;SDS011;11075;47.944;11.776;2023-06-26T05:30:59;9.35;;;6.70;;
21825;SDS011;11075;47.944;11.776;2023-06-26T05:33:27;11.57;;;6.60;;
21825;SDS011;11075;47.944;11.776;2023-06-26T05:35:54;8.95;;;6.78;;
21825;SDS011;11075;47.944;11.776;2023-06-26T05:38:22;10.60;;;6.53;;
21825;SDS011;11075;47.944;11.776;2023-06-26T05:40:49;13.50;;;6.68;;
21825;SDS011;11075;47.944;11.776;2023-06-26T05:43:16;9.20;;;6.82;;
21825;SDS011;11075;47.944;11.776;2023-06-26T05:45:53;9.88;;;6.93;;
21825;SDS011;11075;47.944;11.776;2023-06-26T05:48:20;9.25;;;7.35;;
21825;SDS011;11075;47.944;11.776;2023-06-26T05:50:47;10.02;;;6.65;;
21825;SDS011;11075;47.944;11.776;2023-06-26T05:53:14;9.75;;;6.82;;
21825;SDS011;11075;47.944;11.776;2023-06-26T05:55:41;9.70;;;6.45;;
21825;SDS011;11075;47.944;11.776;2023-06-26T05:58:12;10.40;;;6.90;;
21825;SDS011;11075;47.944;11.776;2023-06-26T06:00:40;8.77;;;6.65;;
21825;SDS011;11075;47.944;11.776;2023-06-26T06:03:09;11.73;;;6.90;;
21825;SDS011;11075;47.944;11.776;2023-06-26T06:05:37;10.23;;;6.43;;
21825;SDS011;11075;47.944;11.776;2023-06-26T06:08:04;10.48;;;6.55;;
21825;SDS011;11075;47.944;11.776;2023-06-26T06:10:31;10.57;;;6.55;;
21825;SDS011;11075;47.944;11.776;2023-06-26T06:12:58;9.65;;;6.85;;
21825;SDS011;11075;47.944;11.776;2023-06-26T06:15:25;9.38;;;6.35;;
21825;SDS011;11075;47.944;11.776;2023-06-26T06:17:55;7.78;;;6.50;;
21825;SDS011;11075;47.944;11.776;2023-06-26T06:20:22;10.27;;;6.90;;
21825;SDS011;11075;47.944;11.776;2023-06-26T06:22:49;7.53;;;6.32;;
21825;SDS011;11075;47.944;11.776;2023-06-26T06:25:16;11.07;;;6.65;;
21825;SDS011;11075;47.944;11.776;2023-06-26T06:27:42;10.68;;;6.88;;
21825;SDS011;11075;47.944;11.776;2023-06-26T06:30:10;9.38;;;6.75;;
21825;SDS011;11075;47.944;11.776;2023-06-26T06:32:37;10.25;;;6.63;;
21825;SDS011;11075;47.944;11.776;2023-06-26T06:35:04;8.35;;;6.13;;
21825;SDS011;11075;47.944;11.776;2023-06-26T06:37:37;10.77;;;7.38;;
21825;SDS011;11075;47.944;11.776;2023-06-26T06:40:05;7.75;;;6.65;;
21825;SDS011;11075;47.944;11.776;2023-06-26T06:42:33;7.40;;;5.97;;
21825;SDS011;11075;47.944;11.776;2023-06-26T06:45:01;10.23;;;6.60;;
21825;SDS011;11075;47.944;11.776;2023-06-26T06:47:29;13.20;;;7.38;;
21825;SDS011;11075;47.944;11.776;2023-06-26T06:49:57;8.73;;;6.22;;
21825;SDS011;11075;47.944;11.776;2023-06-26T06:52:24;8.32;;;5.93;;
21825;SDS011;11075;47.944;11.776;2023-06-26T06:54:51;7.07;;;6.38;;
21825;SDS011;11075;47.944;11.776;2023-06-26T06:57:20;6.07;;;5.43;;
21825;SDS011;11075;47.944;11.776;2023-06-26T06:59:47;7.13;;;5.45;;
21825;SDS011;11075;47.944;11.776;2023-06-26T07:02:18;8.40;;;5.63;;
21825;SDS011;11075;47.944;11.776;2023-06-26T07:04:45;5.95;;;5.38;;
21825;SDS011;11075;47.944;11.776;2023-06-26T07:07:12;6.88;;;4.70;;
21825;SDS011;11075;47.944;11.776;2023-06-26T07:09:40;5.95;;;5.35;;
21825;SDS011;11075;47.944;11.776;2023-06-26T07:12:07;7.47;;;5.20;;
21825;SDS011;11075;47.944;11.776;2023-06-26T07:14:34;6.85;;;5.35;;
21825;SDS011;11075;47.944;11.776;2023-06-26T07:17:01;6.65;;;5.53;;
21825;SDS011;11075;47.944;11.776;2023-06-26T07:19:28;5.60;;;5.00;;
21825;SDS011;11075;47.944;11.776;2023-06-26T07:21:54;7.78;;;5.45;;
21825;SDS011;11075;47.944;11.776;2023-06-26T07:24:21;9.68;;;5.72;;
21825;SDS011;11075;47.944;11.776;2023-06-26T07:26:48;5.13;;;4.63;;
21825;SDS011;11075;47.944;11.776;2023-06-26T07:29:16;5.72;;;4.75;;
21825;SDS011;11075;47.944;11.776;2023-06-26T07:31:43;5.75;;;4.70;;
21825;SDS011;11075;47.944;11.776;2023-06-26T07:34:12;6.20;;;5.60;;
21825;SDS011;11075;47.944;11.776;2023-06-26T07:36:39;8.32;;;5.35;;
21825;SDS011;11075;47.944;11.776;2023-06-26T07:39:06;6.32;;;5.43;;
21825;SDS011;11075;47.944;11.776;2023-06-26T07:41:35;6.25;;;5.45;;
21825;SDS011;11075;47.944;11.776;2023-06-26T07:44:02;6.07;;;5.22;;
21825;SDS011;11075;47.944;11.776;2023-06-26T07:46:30;6.97;;;5.70;;
21825;SDS011;11075;47.944;11.776;2023-06-26T07:48:56;6.95;;;5.35;;
21825;SDS011;11075;47.944;11.776;2023-06-26T07:51:23;7.32;;;5.70;;
21825;SDS011;11075;47.944;11.776;2023-06-26T07:53:50;9.30;;;5.43;;
21825;SDS011;11075;47.944;11.776;2023-06-26T07:56:17;5.45;;;4.88;;
21825;SDS011;11075;47.944;11.776;2023-06-26T07:58:44;6.32;;;4.90;;
21825;SDS011;11075;47.944;11.776;2023-06-26T08:01:11;6.10;;;5.38;;
21825;SDS011;11075;47.944;11.776;2023-06-26T08:03:38;5.85;;;5.25;;
21825;SDS011;11075;47.944;11.776;2023-06-26T08:06:06;6.18;;;5.57;;
21825;SDS011;11075;47.944;11.776;2023-06-26T08:08:36;6.60;;;5.53;;
21825;SDS011;11075;47.944;11.776;2023-06-26T08:11:03;6.38;;;5.55;;
21825;SDS011;11075;47.944;11.776;2023-06-26T08:13:29;5.57;;;5.00;;
21825;SDS011;11075;47.944;11.776;2023-06-26T08:15:56;6.47;;;5.70;;
21825;SDS011;11075;47.944;11.776;2023-06-26T08:18:23;6.25;;;5.63;;
21825;SDS011;11075;47.944;11.776;2023-06-26T08:20:50;7.18;;;5.68;;
21825;SDS011;11075;47.944;11.776;2023-06-26T08:23:17;5.97;;;5.30;;
21825;SDS011;11075;47.944;11.776;2023-06-26T08:25:44;6.35;;;5.32;;
21825;SDS011;11075;47.944;11.776;2023-06-26T08:28:13;7.28;;;5.30;;
21825;SDS011;11075;47.944;11.776;2023-06-26T08:30:40;6.78;;;5.68;;
21825;SDS011;11075;47.944;11.776;2023-06-26T08:33:07;9.52;;;5.38;;
21825;SDS011;11075;47.944;11.776;2023-06-26T08:35:38;7.05;;;5.72;;
21825;SDS011;11075;47.944;11.776;2023-06-26T08:38:05;6.28;;;5.55;;
21825;SDS011;11075;47.944;11.776;2023-06-26T08:40:32;5.70;;;4.90;;
21825;SDS011;11075;47.944;11.776;2023-06-26T08:42:59;11.70;;;4.93;;
21825;SDS011;11075;47.944;11.776;2023-06-26T08:45:26;5.45;;;4.78;;
21825;SDS011;11075;47.944;11.776;2023-06-26T08:47:55;6.82;;;5.05;;
21825;SDS011;11075;47.944;11.776;2023-06-26T08:50:27;6.43;;;4.80;;
21825;SDS011;11075;47.944;11.776;2023-06-26T08:53:12;5.45;;;4.90;;
21825;SDS011;11075;47.944;11.776;2023-06-26T08:56:00;5.55;;;5.05;;
21825;SDS011;11075;47.944;11.776;2023-06-26T08:58:28;6.05;;;5.45;;
21825;SDS011;11075;47.944;11.776;2023-06-26T09:00:55;6.65;;;4.93;;
21825;SDS011;11075;47.944;11.776;2023-06-26T09:03:23;5.95;;;4.90;;
21825;SDS011;11075;47.944;11.776;2023-06-26T09:05:51;5.50;;;5.00;;
21825;SDS011;11075;47.944;11.776;2023-06-26T09:08:18;5.55;;;4.97;;
21825;SDS011;11075;47.944;11.776;2023-06-26T09:10:45;5.60;;;5.10;;
21825;SDS011;11075;47.944;11.776;2023-06-26T09:13:12;6.63;;;4.70;;
21825;SDS011;11075;47.944;11.776;2023-06-26T09:15:54;5.32;;;4.82;;
21825;SDS011;11075;47.944;11.776;2023-06-26T09:18:22;4.63;;;4.22;;
21825;SDS011;11075;47.944;11.776;2023-06-26T09:20:49;5.90;;;4.65;;
21825;SDS011;11075;47.944;11.776;2023-06-26T09:23:16;5.45;;;4.88;;
21825;SDS011;11075;47.944;11.776;2023-06-26T09:25:44;5.63;;;5.05;;
21825;SDS011;11075;47.944;11.776;2023-06-26T09:28:14;5.53;;;4.63;;
21825;SDS011;11075;47.944;11.776;2023-06-26T09:30:41;6.30;;;4.47;;
21825;SDS011;11075;47.944;11.776;2023-06-26T09:33:18;6.53;;;4.63;;
21825;SDS011;11075;47.944;11.776;2023-06-26T09:35:47;4.35;;;3.95;;
21825;SDS011;11075;47.944;11.776;2023-06-26T09:38:14;4.82;;;4.43;;
21825;SDS011;11075;47.944;11.776;2023-06-26T09:40:41;5.03;;;4.38;;
21825;SDS011;11075;47.944;11.776;2023-06-26T09:43:09;4.47;;;4.07;;
21825;SDS011;11075;47.944;11.776;2023-06-26T09:45:40;5.82;;;4.20;;
21825;SDS011;11075;47.944;11.776;2023-06-26T09:48:07;6.15;;;4.18;;
21825;SDS011;11075;47.944;11.776;2023-06-26T09:50:38;5.72;;;4.25;;
21825;SDS011;11075;47.944;11.776;2023-06-26T09:53:26;4.97;;;4.10;;
21825;SDS011;11075;47.944;11.776;2023-06-26T09:55:53;4.65;;;4.10;;
21825;SDS011;11075;47.944;11.776;2023-06-26T09:58:20;5.85;;;4.22;;
21825;SDS011;11075;47.944;11.776;2023-06-26T10:00:50;6.10;;;3.70;;
21825;SDS011;11075;47.944;11.776;2023-06-26T10:03:18;4.10;;;3.60;;
21825;SDS011;11075;47.944;11.776;2023-06-26T10:05:46;8.23;;;3.60;;
21825;SDS011;11075;47.944;11.776;2023-06-26T10:08:14;4.45;;;4.05;;
21825;SDS011;11075;47.944;11.776;2023-06-26T10:10:42;7.32;;;3.88;;
21825;SDS011;11075;47.944;11.776;2023-06-26T10:13:18;4.07;;;3.65;;
21825;SDS011;11075;47.944;11.776;2023-06-26T10:15:48;4.60;;;3.60;;
21825;SDS011;11075;47.944;11.776;2023-06-26T10:18:17;3.65;;;3.35;;
21825;SDS011;11075;47.944;11.776;2023-06-26T10:20:46;4.93;;;3.30;;
21825;SDS011;11075;47.944;11.776;2023-06-26T10:23:14;4.47;;;4.07;;
21825;SDS011;11075;47.944;11.776;2023-06-26T10:25:44;4.15;;;3.58;;
21825;SDS011;11075;47.944;11.776;2023-06-26T10:28:14;4.30;;;3.90;;
21825;SDS011;11075;47.944;11.776;2023-06-26T10:30:43;5.53;;;3.80;;
21825;SDS011;11075;47.944;11.776;2023-06-26T10:33:13;9.38;;;3.70;;
21825;SDS011;11075;47.944;11.776;2023-06-26T10:35:42;4.30;;;3.90;;
21825;SDS011;11075;47.944;11.776;2023-06-26T10:38:14;4.95;;;4.18;;
21825;SDS011;11075;47.944;11.776;2023-06-26T10:43:09;5.78;;;3.30;;
21825;SDS011;11075;47.944;11.776;2023-06-26T10:45:42;3.42;;;3.13;;
21825;SDS011;11075;47.944;11.776;2023-06-26T10:48:16;4.35;;;3.92;;
21825;SDS011;11075;47.944;11.776;2023-06-26T10:50:43;6.32;;;3.83;;
21825;SDS011;11075;47.944;11.776;2023-06-26T10:55:49;5.97;;;4.00;;
21825;SDS011;11075;47.944;11.776;2023-06-26T10:58:32;5.10;;;3.78;;
21825;SDS011;11075;47.944;11.776;2023-06-26T11:06:29;3.67;;;3.20;;
21825;SDS011;11075;47.944;11.776;2023-06-26T11:14:18;4.00;;;3.70;;
21825;SDS011;11075;47.944;11.776;2023-06-26T11:16:46;4.95;;;3.63;;
21825;SDS011;11075;47.944;11.776;2023-06-26T11:19:13;4.22;;;3.83;;
21825;SDS011;11075;47.944;11.776;2023-06-26T11:21:41;3.63;;;3.33;;
21825;SDS011;11075;47.944;11.776;2023-06-26T11:24:09;3.67;;;3.33;;
21825;SDS011;11075;47.944;11.776;2023-06-26T11:26:38;4.00;;;3.50;;
21825;SDS011;11075;47.944;11.776;2023-06-26T11:29:09;3.78;;;3.35;;
21825;SDS011;11075;47.944;11.776;2023-06-26T11:31:38;3.90;;;3.55;;
21825;SDS011;11075;47.944;11.776;2023-06-26T11:34:08;3.88;;;3.20;;
21825;SDS011;11075;47.944;11.776;2023-06-26T11:36:39;3.72;;;3.30;;
21825;SDS011;11075;47.944;11.776;2023-06-26T11:39:09;3.70;;;3.40;;
21825;SDS011;11075;47.944;11.776;2023-06-26T11:41:36;3.92;;;3.53;;
21825;SDS011;11075;47.944;11.776;2023-06-26T11:44:05;4.07;;;3.53;;
21825;SDS011;11075;47.944;11.776;2023-06-26T11:46:34;4.05;;;3.65;;
21825;SDS011;11075;47.944;11.776;2023-06-26T11:49:07;5.65;;;3.80;;
21825;SDS011;11075;47.944;11.776;2023-06-26T11:51:35;3.72;;;3.42;;
21825;SDS011;11075;47.944;11.776;2023-06-26T11:54:06;3.92;;;3.53;;
21825;SDS011;11075;47.944;11.776;2023-06-26T11:56:33;4.18;;;3.53;;
21825;SDS011;11075;47.944;11.776;2023-06-26T11:59:01;5.38;;;3.78;;
21825;SDS011;11075;47.944;11.776;2023-06-26T12:01:40;4.32;;;3.78;;
21825;SDS011;11075;47.944;11.776;2023-06-26T12:04:14;4.93;;;3.50;;
21825;SDS011;11075;47.944;11.776;2023-06-26T12:06:45;4.30;;;3.90;;
21825;SDS011;11075;47.944;11.776;2023-06-26T12:09:14;4.32;;;3.92;;
21825;SDS011;11075;47.944;11.776;2023-06-26T12:11:44;5.35;;;4.50;;
21825;SDS011;11075;47.944;11.776;2023-06-26T12:14:15;3.97;;;3.58;;
21825;SDS011;11075;47.944;11.776;2023-06-26T12:16:43;3.97;;;3.67;;
21825;SDS011;11075;47.944;11.776;2023-06-26T12:19:10;4.05;;;3.65;;
21825;SDS011;11075;47.944;11.776;2023-06-26T12:24:05;4.82;;;3.97;;
21825;SDS011;11075;47.944;11.776;2023-06-26T12:26:32;5.13;;;4.65;;
21825;SDS011;11075;47.944;11.776;2023-06-26T12:31:34;5.03;;;4.28;;
21825;SDS011;11075;47.944;11.776;2023-06-26T12:34:08;5.38;;;4.60;;
21825;SDS011;11075;47.944;11.776;2023-06-26T12:36:39;5.90;;;4.07;;
21825;SDS011;11075;47.944;11.776;2023-06-26T12:39:10;4.38;;;3.97;;
21825;SDS011;11075;47.944;11.776;2023-06-26T12:44:34;4.78;;;4.30;;
21825;SDS011;11075;47.944;11.776;2023-06-26T12:47:03;7.75;;;4.18;;
21825;SDS011;11075;47.944;11.776;2023-06-26T12:49:36;10.93;;;4.78;;
21825;SDS011;11075;47.944;11.776;2023-06-26T12:52:05;4.68;;;4.10;;
21825;SDS011;11075;47.944;11.776;2023-06-26T12:54:33;4.47;;;4.07;;
21825;SDS011;11075;47.944;11.776;2023-06-26T12:57:01;4.43;;;4.03;;
21825;SDS011;11075;47.944;11.776;2023-06-26T12:59:31;5.32;;;4.40;;
21825;SDS011;11075;47.944;11.776;2023-06-26T13:01:58;6.35;;;4.70;;
21825;SDS011;11075;47.944;11.776;2023-06-26T13:04:26;7.50;;;4.32;;
21825;SDS011;11075;47.944;11.776;2023-06-26T13:06:54;5.88;;;4.10;;
21825;SDS011;11075;47.944;11.776;2023-06-26T13:09:22;5.22;;;4.00;;
21825;SDS011;11075;47.944;11.776;2023-06-26T13:11:50;5.25;;;4.50;;
21825;SDS011;11075;47.944;11.776;2023-06-26T13:14:18;7.15;;;4.10;;
21825;SDS011;11075;47.944;11.776;2023-06-26T13:16:45;4.43;;;4.03;;
21825;SDS011;11075;47.944;11.776;2023-06-26T13:19:11;4.90;;;4.45;;
21825;SDS011;11075;47.944;11.776;2023-06-26T13:21:38;4.65;;;4.10;;
21825;SDS011;11075;47.944;11.776;2023-06-26T13:24:05;4.70;;;4.30;;
21825;SDS011;11075;47.944;11.776;2023-06-26T13:26:32;4.95;;;4.45;;
21825;SDS011;11075;47.944;11.776;2023-06-26T13:29:04;5.20;;;4.70;;
21825;SDS011;11075;47.944;11.776;2023-06-26T13:31:31;4.90;;;4.40;;
21825;SDS011;11075;47.944;11.776;2023-06-26T13:33:59;5.70;;;4.70;;
21825;SDS011;11075;47.944;11.776;2023-06-26T13:36:26;4.80;;;4.30;;
21825;SDS011;11075;47.944;11.776;2023-06-26T13:38:53;6.90;;;4.57;;
21825;SDS011;11075;47.944;11.776;2023-06-26T13:41:23;5.38;;;4.88;;
21825;SDS011;11075;47.944;11.776;2023-06-26T13:43:51;8.95;;;4.47;;
21825;SDS011;11075;47.944;11.776;2023-06-26T13:46:19;5.10;;;4.60;;
21825;SDS011;11075;47.944;11.776;2023-06-26T13:48:46;6.82;;;5.07;;
21825;SDS011;11075;47.944;11.776;2023-06-26T13:51:13;7.68;;;4.50;;
21825;SDS011;11075;47.944;11.776;2023-06-26T13:53:40;5.50;;;4.80;;
21825;SDS011;11075;47.944;11.776;2023-06-26T13:56:07;5.15;;;4.50;;
21825;SDS011;11075;47.944;11.776;2023-06-26T13:58:35;5.25;;;4.75;;
21825;SDS011;11075;47.944;11.776;2023-06-26T14:01:03;7.30;;;5.00;;
21825;SDS011;11075;47.944;11.776;2023-06-26T14:03:33;6.43;;;5.15;;
21825;SDS011;11075;47.944;11.776;2023-06-26T14:06:00;6.20;;;5.47;;
21825;SDS011;11075;47.944;11.776;2023-06-26T14:08:27;6.50;;;4.88;;
21825;SDS011;11075;47.944;11.776;2023-06-26T14:10:54;5.82;;;5.28;;
21825;SDS011;11075;47.944;11.776;2023-06-26T14:13:21;5.32;;;4.50;;
21825;SDS011;11075;47.944;11.776;2023-06-26T14:15:49;5.97;;;5.13;;
21825;SDS011;11075;47.944;11.776;2023-06-26T14:18:19;5.82;;;5.22;;
21825;SDS011;11075;47.944;11.776;2023-06-26T14:20:47;7.43;;;4.97;;
21825;SDS011;11075;47.944;11.776;2023-06-26T14:23:14;10.90;;;5.28;;
21825;SDS011;11075;47.944;11.776;2023-06-26T14:25:42;5.50;;;5.00;;
21825;SDS011;11075;47.944;11.776;2023-06-26T14:28:08;5.88;;;5.28;;
21825;SDS011;11075;47.944;11.776;2023-06-26T14:30:35;7.57;;;5.30;;
21825;SDS011;11075;47.944;11.776;2023-06-26T14:33:02;5.88;;;5.00;;
21825;SDS011;11075;47.944;11.776;2023-06-26T14:35:29;5.88;;;5.32;;
21825;SDS011;11075;47.944;11.776;2023-06-26T14:37:56;6.15;;;5.55;;
21825;SDS011;11075;47.944;11.776;2023-06-26T14:40:23;9.68;;;5.65;;
21825;SDS011;11075;47.944;11.776;2023-06-26T14:42:50;5.95;;;5.05;;
21825;SDS011;11075;47.944;11.776;2023-06-26T14:45:17;7.07;;;5.15;;
21825;SDS011;11075;47.944;11.776;2023-06-26T14:47:45;7.00;;;5.28;;
21825;SDS011;11075;47.944;11.776;2023-06-26T14:50:12;7.43;;;4.70;;
21825;SDS011;11075;47.944;11.776;2023-06-26T14:52:39;7.47;;;5.50;;
21825;SDS011;11075;47.944;11.776;2023-06-26T14:55:05;5.30;;;4.80;;
21825;SDS011;11075;47.944;11.776;2023-06-26T14:57:34;8.13;;;5.65;;
21825;SDS011;11075;47.944;11.776;2023-06-26T15:00:02;8.23;;;5.57;;
21825;SDS011;11075;47.944;11.776;2023-06-26T15:02:29;6.25;;;5.47;;
21825;SDS011;11075;47.944;11.776;2023-06-26T15:04:57;6.32;;;5.75;;
21825;SDS011;11075;47.944;11.776;2023-06-26T15:07:24;6.90;;;4.95;;